Time;durP1;ratioP1;P1;durP2;ratioP2;P2;SDS_P1;SDS_P2;PMS_P1;PMS_P2;Temp;Humidity;BMP_temperature;BMP_pressure;BME280_temperature;BME280_humidity;BME280_pressure;Samples;Min_cycle;Max_cycle;Signal;HPM_P1;HPM_P2
2021/01/30 00:00:49;;;;;;;2.80;2.53;;;;;;;-3.03;82.72;100089.91;6203303;28;20303;-73
2021/01/30 00:03:54;;;;;;;2.70;2.60;;;;;;;-3.03;83.46;100089.91;6204916;28;20654;-72
2021/01/30 00:06:58;;;;;;;3.43;2.50;;;;;;;-3.19;82.61;100089.72;6207775;28;20221;-72
2021/01/30 00:10:03;;;;;;;3.10;2.90;;;;;;;-3.24;83.29;100082.16;6204423;28;20204;-72
2021/01/30 00:13:09;;;;;;;3.23;2.70;;;;;;;-3.20;82.23;100088.03;6200770;28;20217;-71
2021/01/30 00:16:14;;;;;;;3.30;3.00;;;;;;;-3.18;83.42;100096.72;6197592;28;20291;-72
2021/01/30 00:19:18;;;;;;;2.93;2.67;;;;;;;-3.13;82.58;100091.78;6207923;28;20192;-73
2021/01/30 00:22:22;;;;;;;3.60;2.20;;;;;;;-3.24;82.82;100092.00;6206257;28;20236;-73
2021/01/30 00:25:29;;;;;;;2.97;2.87;;;;;;;-3.21;82.52;100087.19;6204276;28;20591;-74
2021/01/30 00:28:32;;;;;;;3.00;2.90;;;;;;;-3.12;82.37;100089.94;6201318;28;20334;-74
2021/01/30 00:31:35;;;;;;;2.90;2.80;;;;;;;-3.12;82.35;100085.47;6188599;28;20211;-72
2021/01/30 00:34:41;;;;;;;2.93;2.73;;;;;;;-3.61;82.97;100104.47;6199658;28;20282;-75
2021/01/30 00:37:44;;;;;;;2.33;2.33;;;;;;;-3.71;83.08;100092.97;6201277;28;21619;-73
2021/01/30 00:40:49;;;;;;;3.63;3.33;;;;;;;-3.61;83.50;100093.78;6205169;28;20192;-72
2021/01/30 00:43:52;;;;;;;2.90;2.80;;;;;;;-3.77;83.30;100088.25;6202465;28;20199;-73
2021/01/30 00:46:57;;;;;;;2.30;2.30;;;;;;;-3.74;83.34;100087.94;6201447;28;20277;-74
2021/01/30 00:50:00;;;;;;;3.13;3.00;;;;;;;-3.81;83.09;100093.84;6210303;28;20648;-72
2021/01/30 00:53:07;;;;;;;3.97;2.67;;;;;;;-3.82;83.68;100085.97;6183551;28;20310;-73
2021/01/30 00:56:19;;;;;;;6.33;2.60;;;;;;;-3.77;82.88;100082.91;6199122;28;20227;-72
2021/01/30 00:59:23;;;;;;;2.50;2.40;;;;;;;-3.83;83.30;100084.31;6186794;28;20386;-73
2021/01/30 01:02:27;;;;;;;2.47;2.47;;;;;;;-4.01;83.27;100089.53;6200839;28;20211;-74
2021/01/30 01:05:31;;;;;;;2.70;2.50;;;;;;;-3.92;82.86;100054.03;6189693;28;20230;-72
2021/01/30 01:08:35;;;;;;;2.77;2.53;;;;;;;-3.92;82.67;100080.69;6206988;28;20667;-73
2021/01/30 01:11:41;;;;;;;2.87;2.83;;;;;;;-3.88;83.74;100076.72;6204745;28;20595;-73
2021/01/30 01:14:45;;;;;;;2.97;2.87;;;;;;;-3.74;83.25;100071.94;6198478;28;20187;-73
2021/01/30 01:17:48;;;;;;;2.37;2.37;;;;;;;-3.78;83.29;100059.91;6200121;28;20225;-73
2021/01/30 01:20:52;;;;;;;2.70;2.50;;;;;;;-3.73;82.74;100068.28;6187490;28;20202;-73
2021/01/30 01:23:55;;;;;;;2.50;2.40;;;;;;;-3.95;82.66;100070.31;6201383;28;20204;-73
2021/01/30 01:26:59;;;;;;;2.63;2.53;;;;;;;-3.82;82.77;100065.50;6198424;28;20235;-73
2021/01/30 01:30:05;;;;;;;2.80;2.70;;;;;;;-3.82;82.20;100054.84;6209906;28;20235;-73
2021/01/30 01:33:12;;;;;;;2.70;2.60;;;;;;;-3.78;82.16;100066.06;6203276;28;20195;-72
2021/01/30 01:36:17;;;;;;;2.70;2.60;;;;;;;-3.93;82.10;100068.34;6197214;28;20284;-74
2021/01/30 01:39:20;;;;;;;2.83;2.63;;;;;;;-3.92;82.44;100054.03;6195511;28;20208;-74
2021/01/30 01:42:26;;;;;;;3.17;2.97;;;;;;;-3.84;82.11;100054.16;6206566;28;20195;-74
2021/01/30 01:45:29;;;;;;;6.80;2.93;;;;;;;-3.88;82.71;100055.41;6198359;28;20213;-72
2021/01/30 01:48:35;;;;;;;2.73;2.53;;;;;;;-3.95;82.44;100059.66;6203392;28;20200;-71
2021/01/30 01:51:42;;;;;;;3.07;2.97;;;;;;;-4.06;82.36;100059.81;6196201;28;20519;-74
2021/01/30 01:54:49;;;;;;;2.33;2.23;;;;;;;-3.99;82.40;100057.41;6198741;28;20644;-72
2021/01/30 01:57:56;;;;;;;3.00;2.67;;;;;;;-4.12;82.67;100052.41;6210834;28;20278;-74
2021/01/30 02:01:01;;;;;;;3.00;2.80;;;;;;;-3.94;82.48;100058.69;6200567;28;20191;-75
2021/01/30 02:04:10;;;;;;;3.00;2.83;;;;;;;-4.16;81.82;100056.31;6193137;28;20634;-72
2021/01/30 02:07:14;;;;;;;2.57;2.50;;;;;;;-4.25;83.08;100062.50;6196683;28;20206;-73
2021/01/30 02:10:21;;;;;;;2.70;2.50;;;;;;;-4.25;83.07;100067.84;6198135;28;20199;-73
2021/01/30 02:13:30;;;;;;;2.83;2.70;;;;;;;-4.15;82.62;100052.69;6196302;28;20196;-73
2021/01/30 02:16:40;;;;;;;2.80;2.70;;;;;;;-4.12;82.09;100068.38;6198259;28;20294;-72
2021/01/30 02:20:21;;;;;;;2.83;2.33;;;;;;;-4.29;82.19;100060.28;6209053;28;20210;-74
2021/01/30 02:23:51;;;;;;;2.70;2.33;;;;;;;-4.35;82.14;100051.03;6199184;28;20194;-72
2021/01/30 02:27:35;;;;;;;2.53;2.50;;;;;;;-4.17;81.83;100054.66;6177376;28;20218;-72
2021/01/30 02:31:30;;;;;;;2.27;2.20;;;;;;;-4.13;81.03;100049.84;6196288;28;20238;-72
2021/01/30 02:34:50;;;;;;;2.40;2.30;;;;;;;-4.10;80.88;100055.75;6201686;28;20697;-71
2021/01/30 02:38:00;;;;;;;2.20;2.17;;;;;;;-4.09;80.63;100052.13;6201142;28;20218;-75
2021/01/30 02:41:21;;;;;;;2.17;2.17;;;;;;;-4.18;80.53;100049.44;6201458;28;20275;-72
2021/01/30 02:44:27;;;;;;;2.43;2.40;;;;;;;-4.12;80.63;100041.75;6195344;28;20665;-72
2021/01/30 02:47:35;;;;;;;2.90;2.67;;;;;;;-4.29;80.50;100029.16;6207729;28;20213;-71
2021/01/30 02:50:45;;;;;;;2.40;2.40;;;;;;;-4.20;79.96;100038.94;6192812;28;20198;-72
2021/01/30 02:53:52;;;;;;;2.50;2.30;;;;;;;-4.14;80.01;100033.06;6197802;28;20202;-72
2021/01/30 02:56:58;;;;;;;2.50;2.50;;;;;;;-4.24;79.60;100023.41;6197507;28;20199;-72
2021/01/30 03:00:06;;;;;;;2.30;2.20;;;;;;;-4.35;79.71;100051.03;6201797;28;20207;-72
2021/01/30 03:03:17;;;;;;;2.23;2.23;;;;;;;-4.30;80.02;100043.44;6191622;28;20536;-73
2021/01/30 03:06:29;;;;;;;2.13;2.13;;;;;;;-4.32;80.26;100026.78;6200062;28;20565;-74
2021/01/30 03:09:39;;;;;;;2.40;2.40;;;;;;;-4.50;80.57;100031.13;6206109;28;20273;-72
2021/01/30 03:12:54;;;;;;;2.23;2.20;;;;;;;-4.22;79.59;100024.94;6194164;28;20209;-72
2021/01/30 03:16:00;;;;;;;2.73;2.30;;;;;;;-4.22;79.19;100024.94;6199883;28;20281;-74
2021/01/30 03:19:09;;;;;;;2.20;2.10;;;;;;;-4.23;79.15;100023.25;6193416;28;20191;-72
2021/01/30 03:22:14;;;;;;;2.17;2.17;;;;;;;-4.16;78.89;100019.03;6194532;28;20199;-72
2021/01/30 03:25:21;;;;;;;1.97;1.97;;;;;;;-4.03;78.50;100030.22;6198274;28;20206;-75
2021/01/30 03:28:24;;;;;;;2.13;2.13;;;;;;;-4.29;79.01;100023.84;6200152;28;20274;-73
2021/01/30 03:31:29;;;;;;;2.30;2.23;;;;;;;-4.23;79.01;100023.25;6192372;28;20198;-72
2021/01/30 03:34:32;;;;;;;2.87;2.67;;;;;;;-4.44;78.24;100027.88;6199113;28;20289;-73
2021/01/30 03:37:36;;;;;;;2.10;2.00;;;;;;;-4.31;79.58;100020.44;6197950;28;20235;-73
2021/01/30 03:40:43;;;;;;;2.30;2.30;;;;;;;-4.23;79.11;100017.91;6208289;28;20285;-72
2021/01/30 03:43:46;;;;;;;2.10;2.00;;;;;;;-4.05;78.29;100021.53;6201271;28;20194;-73
2021/01/30 03:46:50;;;;;;;1.90;1.90;;;;;;;-4.29;77.74;100007.84;6204612;28;20211;-72
2021/01/30 03:49:53;;;;;;;2.00;2.00;;;;;;;-4.18;77.85;100020.16;6193655;28;20244;-72
2021/01/30 03:52:56;;;;;;;2.30;2.20;;;;;;;-4.28;77.47;100020.16;6205867;28;20313;-73
2021/01/30 03:56:00;;;;;;;2.37;2.27;;;;;;;-4.35;77.47;100008.41;6194997;28;20565;-73
2021/01/30 03:59:03;;;;;;;2.07;1.73;;;;;;;-4.40;77.88;100005.34;6188333;28;20198;-72
2021/01/30 04:02:07;;;;;;;2.23;2.23;;;;;;;-4.24;77.74;100005.59;6192082;28;20217;-72
2021/01/30 04:05:13;;;;;;;1.90;1.90;;;;;;;-4.51;76.87;100013.47;6202121;28;20195;-72
2021/01/30 04:08:18;;;;;;;2.00;2.00;;;;;;;-4.84;78.03;100013.88;6197471;28;20688;-72
2021/01/30 04:11:25;;;;;;;1.83;1.73;;;;;;;-4.91;77.57;100016.28;6206655;28;20556;-73
2021/01/30 04:14:28;;;;;;;1.90;1.80;;;;;;;-4.76;77.20;100006.06;6199308;28;20263;-73
2021/01/30 04:17:32;;;;;;;1.83;1.73;;;;;;;-4.57;77.04;100004.22;6195940;28;20206;-72
2021/01/30 04:20:37;;;;;;;2.00;1.93;;;;;;;-4.61;76.76;99997.50;6193946;28;20198;-72
2021/01/30 04:23:45;;;;;;;2.07;1.80;;;;;;;-4.86;77.45;100011.38;6199354;28;20203;-72
2021/01/30 04:26:49;;;;;;;2.07;2.00;;;;;;;-4.86;77.14;100005.22;6194490;28;20238;-72
2021/01/30 04:29:53;;;;;;;1.70;1.70;;;;;;;-4.60;76.75;100014.31;6202909;28;20232;-76
2021/01/30 04:32:56;;;;;;;1.80;1.80;;;;;;;-4.72;76.14;100015.44;6194799;28;20203;-72
2021/01/30 04:35:59;;;;;;;1.60;1.60;;;;;;;-4.73;76.41;100008.44;6204393;28;20186;-73
2021/01/30 04:39:04;;;;;;;1.50;1.50;;;;;;;-4.71;76.21;100006.47;6201050;28;20232;-72
2021/01/30 04:42:13;;;;;;;1.80;1.70;;;;;;;-4.56;75.90;99989.94;6206795;28;20233;-72
2021/01/30 04:45:28;;;;;;;1.53;1.53;;;;;;;-4.96;75.59;99993.72;6208587;28;20690;-73
2021/01/30 04:48:46;;;;;;;1.40;1.40;;;;;;;-5.21;76.32;99982.63;6208102;28;20759;-72
2021/01/30 04:51:57;;;;;;;1.73;1.63;;;;;;;-5.23;77.16;99986.41;6201437;28;20207;-72
2021/01/30 04:55:14;;;;;;;1.93;1.93;;;;;;;-4.99;76.62;99988.69;6205169;28;20197;-74
2021/01/30 04:58:26;;;;;;;3.30;1.73;;;;;;;-5.01;76.13;99985.31;6196916;28;20187;-73
2021/01/30 05:01:38;;;;;;;1.53;1.53;;;;;;;-5.01;75.97;99993.31;6201705;28;20387;-73
2021/01/30 05:04:44;;;;;;;1.93;1.83;;;;;;;-5.08;76.33;99982.34;6194323;28;20206;-75
2021/01/30 05:07:54;;;;;;;2.03;1.80;;;;;;;-5.09;76.11;99975.38;6206918;28;20225;-74
2021/01/30 05:11:01;;;;;;;1.90;1.90;;;;;;;-5.26;76.02;99974.22;6202546;28;20206;-73
2021/01/30 05:14:12;;;;;;;1.83;1.83;;;;;;;-5.22;75.96;99972.97;6202892;28;20221;-73
2021/01/30 05:17:23;;;;;;;1.90;1.80;;;;;;;-4.97;75.97;99973.41;6206592;28;20293;-73
2021/01/30 05:20:31;;;;;;;2.13;2.03;;;;;;;-4.68;75.18;99964.47;6195714;28;20704;-73
2021/01/30 05:23:37;;;;;;;1.70;1.70;;;;;;;-4.85;74.64;99962.50;6195892;28;20229;-73
2021/01/30 05:26:52;;;;;;;1.80;1.80;;;;;;;-5.25;75.46;99970.59;6192177;28;20258;-72
2021/01/30 05:30:05;;;;;;;2.00;1.90;;;;;;;-5.29;75.55;99969.16;6199799;28;20384;-76
2021/01/30 05:33:31;;;;;;;1.87;1.87;;;;;;;-5.23;75.84;99968.63;6207368;28;20214;-74
2021/01/30 05:36:41;;;;;;;1.87;1.87;;;;;;;-5.11;75.42;99972.84;6197968;28;20226;-75
2021/01/30 05:39:54;;;;;;;1.80;1.80;;;;;;;-5.43;75.65;99972.25;6202402;28;20210;-73
2021/01/30 05:43:14;;;;;;;2.07;1.97;;;;;;;-5.42;76.03;99962.44;6198985;28;20205;-73
2021/01/30 05:46:24;;;;;;;1.93;1.83;;;;;;;-5.38;75.63;99964.69;6204378;28;20200;-73
2021/01/30 05:49:31;;;;;;;1.70;1.70;;;;;;;-5.31;75.97;99960.50;6207264;28;20637;-73
2021/01/30 05:52:37;;;;;;;1.80;1.80;;;;;;;-5.50;75.77;99965.78;6198415;28;20278;-73
2021/01/30 05:55:40;;;;;;;1.90;1.80;;;;;;;-5.48;75.83;99973.63;6198561;28;20202;-72
2021/01/30 05:58:46;;;;;;;1.93;1.83;;;;;;;-5.27;75.96;99966.38;6192727;28;20613;-72
2021/01/30 06:01:50;;;;;;;2.00;1.90;;;;;;;-5.38;76.06;99963.84;6194553;28;20209;-72
2021/01/30 06:04:55;;;;;;;2.03;2.00;;;;;;;-5.40;76.26;99950.69;6208716;28;20194;-73
2021/01/30 06:08:14;;;;;;;2.17;2.10;;;;;;;-5.18;75.35;99961.06;6200671;28;20214;-74
2021/01/30 06:11:17;;;;;;;2.27;2.20;;;;;;;-5.11;75.13;99962.19;6197964;28;20296;-73
2021/01/30 06:14:31;;;;;;;2.07;1.90;;;;;;;-5.37;75.32;99960.22;6194086;28;20267;-72
2021/01/30 06:17:37;;;;;;;2.53;2.20;;;;;;;-5.46;76.59;99953.91;6196531;28;20692;-72
2021/01/30 06:20:40;;;;;;;2.30;2.10;;;;;;;-5.78;76.66;99955.91;6195310;28;20193;-73
2021/01/30 06:24:02;;;;;;;2.17;2.17;;;;;;;-5.70;77.61;99942.81;6197246;28;20407;-74
2021/01/30 06:27:09;;;;;;;2.37;2.27;;;;;;;-5.64;77.59;99955.53;6194572;28;20216;-75
2021/01/30 06:30:25;;;;;;;2.40;2.20;;;;;;;-5.58;77.86;99947.03;6202725;28;20827;-73
2021/01/30 06:33:34;;;;;;;2.70;2.50;;;;;;;-5.62;77.80;99939.47;6188915;28;20196;-72
2021/01/30 06:36:38;;;;;;;2.27;2.27;;;;;;;-5.85;77.59;99933.53;6192568;28;20664;-72
2021/01/30 06:39:45;;;;;;;2.30;2.30;;;;;;;-5.86;78.09;99938.03;6194827;28;20218;-73
2021/01/30 06:42:52;;;;;;;2.57;2.57;;;;;;;-5.80;78.05;99942.75;6200439;28;20200;-73
2021/01/30 06:46:05;;;;;;;2.43;2.43;;;;;;;-5.73;78.15;99932.44;6200041;28;20180;-73
2021/01/30 06:49:18;;;;;;;2.53;2.43;;;;;;;-5.85;78.25;99938.84;6191892;28;20830;-73
2021/01/30 06:52:24;;;;;;;2.43;2.43;;;;;;;-5.76;78.56;99932.72;6184562;28;20352;-73
2021/01/30 06:55:28;;;;;;;2.83;2.60;;;;;;;-5.26;77.44;99937.00;6193877;28;20284;-76
2021/01/30 06:58:40;;;;;;;2.40;2.30;;;;;;;-5.53;78.47;99928.00;6193099;28;20210;-71
2021/01/30 07:01:46;;;;;;;2.63;2.53;;;;;;;-5.24;77.64;99932.38;6198223;28;20277;-72
2021/01/30 07:05:14;;;;;;;2.43;2.30;;;;;;;-5.12;77.04;99933.09;6201417;28;20202;-71
2021/01/30 07:08:31;;;;;;;2.47;2.47;;;;;;;-5.76;78.01;99933.56;6198939;28;20221;-74
2021/01/30 07:11:54;;;;;;;4.20;2.20;;;;;;;-6.06;79.78;99930.13;6203179;28;20547;-72
2021/01/30 07:15:12;;;;;;;2.47;2.47;;;;;;;-6.27;79.69;99927.50;6196921;28;20201;-72
2021/01/30 07:18:28;;;;;;;2.60;2.50;;;;;;;-6.09;80.65;99925.06;6194222;28;20205;-72
2021/01/30 07:21:36;;;;;;;2.57;2.57;;;;;;;-6.31;80.29;99919.94;6206628;28;20526;-73
2021/01/30 07:24:45;;;;;;;2.93;2.83;;;;;;;-6.38;79.80;99909.84;6196713;28;20203;-73
2021/01/30 07:27:56;;;;;;;2.70;2.60;;;;;;;-6.21;79.93;99920.84;6195003;28;20225;-73
2021/01/30 07:31:08;;;;;;;3.13;2.93;;;;;;;-6.25;79.86;99924.72;6192485;28;20186;-72
2021/01/30 07:34:17;;;;;;;2.60;2.50;;;;;;;-6.16;78.85;99929.25;6200911;28;20193;-72
2021/01/30 07:37:27;;;;;;;2.67;2.57;;;;;;;-6.46;79.01;99925.59;6193380;28;20372;-73
2021/01/30 07:40:42;;;;;;;2.60;2.57;;;;;;;-6.35;79.50;99929.97;6184577;28;20205;-72
2021/01/30 07:43:52;;;;;;;2.17;2.17;;;;;;;-6.37;78.77;99927.44;6197555;28;20198;-72
2021/01/30 07:47:07;;;;;;;2.37;2.27;;;;;;;-6.36;78.62;99926.47;6193350;28;21422;-72
2021/01/30 07:50:17;;;;;;;2.90;2.80;;;;;;;-6.44;78.01;99926.28;6194718;28;20233;-73
2021/01/30 07:53:23;;;;;;;2.47;2.37;;;;;;;-6.44;79.30;99926.28;6199185;28;20216;-72
2021/01/30 07:56:42;;;;;;;2.43;2.40;;;;;;;-6.72;78.82;99921.66;6198175;28;20660;-72
2021/01/30 07:59:53;;;;;;;2.50;2.40;;;;;;;-6.86;79.23;99924.66;6198838;28;20219;-72
2021/01/30 08:03:12;;;;;;;2.57;2.47;;;;;;;-7.00;79.85;99917.00;6190388;28;20205;-73
2021/01/30 08:06:34;;;;;;;2.40;2.30;;;;;;;-6.97;80.02;99919.41;6195073;28;20295;-73
2021/01/30 08:09:52;;;;;;;2.43;2.33;;;;;;;-7.24;80.89;99916.41;6200845;28;20241;-73
2021/01/30 08:13:08;;;;;;;4.03;2.73;;;;;;;-7.19;80.44;99911.56;6198265;28;20224;-73
2021/01/30 08:16:29;;;;;;;2.47;2.30;;;;;;;-7.26;80.49;99910.34;6199797;28;20491;-73
2021/01/30 08:19:44;;;;;;;2.83;2.73;;;;;;;-7.21;80.87;99908.16;6193688;28;20841;-75
2021/01/30 08:22:59;;;;;;;2.90;2.80;;;;;;;-6.88;80.24;99921.25;6195759;28;20663;-73
2021/01/30 08:26:09;;;;;;;2.60;2.43;;;;;;;-7.03;80.30;99911.94;6205002;28;20236;-72
2021/01/30 08:29:17;;;;;;;2.60;2.50;;;;;;;-7.07;80.06;99915.81;6196756;28;20294;-73
2021/01/30 08:32:52;;;;;;;3.17;2.97;;;;;;;-7.00;79.99;99906.38;6202270;28;20195;-73
2021/01/30 08:35:57;;;;;;;2.17;2.10;;;;;;;-7.01;80.12;99912.69;6201963;28;20505;-74
2021/01/30 08:39:05;;;;;;;3.17;2.53;;;;;;;-7.08;80.44;99909.69;6197210;28;20228;-71
2021/01/30 08:42:19;;;;;;;2.93;2.83;;;;;;;-6.76;79.61;99911.44;6201875;28;20213;-76
2021/01/30 08:45:26;;;;;;;1.97;1.97;;;;;;;-7.02;80.16;99903.03;6203432;28;20634;-73
2021/01/30 08:48:32;;;;;;;2.53;2.43;;;;;;;-6.87;79.87;99895.59;6197550;28;20236;-73
2021/01/30 08:51:36;;;;;;;2.60;2.40;;;;;;;-6.49;79.58;99901.13;6201040;28;20292;-74
2021/01/30 08:54:41;;;;;;;2.50;2.40;;;;;;;-6.49;78.63;99906.44;6222010;28;20307;-73
2021/01/30 08:57:45;;;;;;;2.30;2.30;;;;;;;-6.83;79.86;99903.16;6203922;28;20201;-73
2021/01/30 09:00:55;;;;;;;2.60;2.50;;;;;;;-6.84;79.72;99906.78;6193797;28;20204;-73
2021/01/30 09:03:59;;;;;;;3.10;2.60;;;;;;;-7.17;79.96;99899.00;6204642;28;20261;-74
2021/01/30 09:07:03;;;;;;;2.83;2.60;;;;;;;-6.98;80.03;99891.19;6207883;28;20203;-72
2021/01/30 09:10:34;;;;;;;2.70;2.60;;;;;;;-7.19;80.83;99900.94;6192280;28;20262;-73
2021/01/30 09:14:03;;;;;;;2.80;2.60;;;;;;;-7.22;80.75;99901.19;6208844;28;20210;-74
2021/01/30 09:17:26;;;;;;;2.67;2.47;;;;;;;-7.08;79.77;99904.38;6194788;28;20816;-72
2021/01/30 09:20:34;;;;;;;2.47;2.33;;;;;;;-7.05;78.15;99903.28;6197746;28;20204;-73
2021/01/30 09:23:50;;;;;;;2.63;2.53;;;;;;;-7.26;78.71;99902.41;6199459;28;20203;-75
2021/01/30 09:27:05;;;;;;;2.83;2.70;;;;;;;-7.01;77.97;99899.41;6218336;28;20315;-73
2021/01/30 09:30:30;;;;;;;2.70;2.50;;;;;;;-7.44;77.90;99907.41;6202724;28;20252;-72
2021/01/30 09:33:39;;;;;;;4.00;2.20;;;;;;;-7.29;77.95;99897.38;6198945;28;20208;-76
2021/01/30 09:36:45;;;;;;;2.37;2.27;;;;;;;-7.45;78.00;99902.25;6194956;28;20216;-73
2021/01/30 09:39:55;;;;;;;6.70;2.23;;;;;;;-7.49;78.22;99903.47;6191785;28;20735;-74
2021/01/30 09:43:02;;;;;;;2.27;2.17;;;;;;;-7.12;77.55;99902.13;6197271;28;20650;-73
2021/01/30 09:46:11;;;;;;;2.07;2.07;;;;;;;-7.15;77.30;99897.06;6192990;28;20205;-73
2021/01/30 09:49:20;;;;;;;1.80;1.70;;;;;;;-7.31;77.84;99917.84;6185620;28;20255;-73
2021/01/30 09:52:23;;;;;;;3.70;2.13;;;;;;;-7.32;77.85;99911.72;6196119;28;20202;-75
2021/01/30 09:55:27;;;;;;;2.07;1.97;;;;;;;-7.13;77.79;99903.06;6200861;28;20205;-72
2021/01/30 09:58:30;;;;;;;2.10;1.90;;;;;;;-7.11;77.83;99909.09;6197405;28;20816;-73
2021/01/30 10:01:37;;;;;;;1.77;1.77;;;;;;;-6.85;77.12;99904.25;6194157;28;20203;-73
2021/01/30 10:04:40;;;;;;;2.70;2.20;;;;;;;-6.75;77.26;99898.03;6192586;28;20204;-73
2021/01/30 10:07:44;;;;;;;3.47;3.00;;;;;;;-6.86;77.78;99903.44;6197070;28;20196;-72
2021/01/30 10:10:48;;;;;;;2.70;2.50;;;;;;;-6.78;77.59;99895.66;6200045;28;20211;-71
2021/01/30 10:13:58;;;;;;;2.90;2.80;;;;;;;-6.75;77.98;99889.25;6197739;28;20983;-76
2021/01/30 10:17:04;;;;;;;10.30;5.67;;;;;;;-6.78;77.74;99894.81;6203497;28;20563;-74
2021/01/30 10:20:12;;;;;;;4.80;4.23;;;;;;;-6.90;77.80;99896.69;6196022;28;20348;-73
2021/01/30 10:23:34;;;;;;;3.40;3.20;;;;;;;-7.01;77.72;99891.47;6201106;28;20203;-72
2021/01/30 10:26:37;;;;;;;2.23;2.13;;;;;;;-6.74;78.03;99891.78;6204018;28;20214;-72
2021/01/30 10:29:41;;;;;;;2.97;2.87;;;;;;;-6.62;77.45;99893.38;6198630;28;20247;-72
2021/01/30 10:32:50;;;;;;;2.30;2.20;;;;;;;-6.58;77.04;99900.13;6193137;28;20304;-73
2021/01/30 10:35:53;;;;;;;2.63;2.50;;;;;;;-6.39;77.09;99902.84;6182724;28;20225;-74
2021/01/30 10:39:00;;;;;;;2.80;2.57;;;;;;;-6.28;76.95;99909.03;6202905;28;20391;-74
2021/01/30 10:42:11;;;;;;;4.67;3.33;;;;;;;-6.08;77.09;99892.22;6195605;28;20344;-71
2021/01/30 10:45:20;;;;;;;6.13;3.20;;;;;;;-6.17;76.27;99895.69;6194562;28;20199;-72
2021/01/30 10:48:28;;;;;;;4.03;3.70;;;;;;;-6.27;76.97;99890.34;6197942;28;20207;-73
2021/01/30 10:51:34;;;;;;;4.40;4.00;;;;;;;-5.95;76.29;99895.47;6194779;28;20205;-73
2021/01/30 10:54:39;;;;;;;3.20;3.00;;;;;;;-5.82;76.02;99880.09;6195003;28;20204;-73
2021/01/30 10:57:42;;;;;;;5.03;2.77;;;;;;;-5.73;74.39;99879.31;6200259;28;20205;-73
2021/01/30 11:04:26;;;;;;;2.37;2.23;;;;;;;-5.43;74.10;99881.84;6881425;23;20251;-71
2021/01/30 11:07:38;;;;;;;4.90;2.63;;;;;;;-6.04;74.27;99880.38;6028094;29;20578;-75
2021/01/30 11:10:43;;;;;;;2.40;2.10;;;;;;;-6.46;75.03;99885.78;6022331;29;20235;-73
2021/01/30 11:13:47;;;;;;;3.07;2.97;;;;;;;-6.52;75.23;99896.91;6024319;29;20290;-73
2021/01/30 11:16:51;;;;;;;3.30;3.00;;;;;;;-6.51;74.80;99877.38;6032708;29;20217;-71
2021/01/30 11:19:55;;;;;;;8.13;2.60;;;;;;;-6.54;74.53;99872.34;6027467;29;20596;-73
2021/01/30 11:22:59;;;;;;;12.37;2.93;;;;;;;-6.23;73.55;99874.97;6035967;29;20715;-72
2021/01/30 11:26:19;;;;;;;5.73;3.77;;;;;;;-6.18;74.41;99878.06;6026947;29;20268;-72
2021/01/30 11:29:35;;;;;;;3.03;2.33;;;;;;;-6.21;73.45;99873.06;6029350;29;20271;-71
2021/01/30 11:32:38;;;;;;;3.07;2.90;;;;;;;-5.93;73.21;99861.69;6025771;29;20221;-74
2021/01/30 11:35:52;;;;;;;2.90;2.80;;;;;;;-6.33;74.22;99855.53;6029628;29;20236;-73
2021/01/30 11:38:57;;;;;;;6.00;2.80;;;;;;;-6.62;74.93;99853.56;6034897;29;20651;-73
2021/01/30 11:42:01;;;;;;;2.90;2.80;;;;;;;-6.20;75.62;99842.84;6028489;29;20563;-73
2021/01/30 11:45:07;;;;;;;2.90;2.77;;;;;;;-6.02;75.25;99851.84;6038645;29;20667;-76
2021/01/30 11:48:11;;;;;;;3.43;3.23;;;;;;;-5.85;75.32;99843.22;6028962;29;20232;-73
2021/01/30 11:51:24;;;;;;;7.10;3.17;;;;;;;-5.79;74.19;99838.19;6028981;29;20297;-73
2021/01/30 11:54:27;;;;;;;7.73;2.90;;;;;;;-6.32;75.67;99835.97;6046121;29;20228;-72
2021/01/30 11:57:30;;;;;;;2.40;2.30;;;;;;;-6.10;75.47;99836.59;6036560;29;20205;-72
2021/01/30 12:00:34;;;;;;;6.07;3.10;;;;;;;-6.01;75.29;99834.97;6028021;29;20239;-73
2021/01/30 12:03:39;;;;;;;3.30;2.40;;;;;;;-6.22;75.76;99847.47;6029084;29;20288;-72
2021/01/30 12:06:43;;;;;;;3.73;2.50;;;;;;;-6.15;76.10;99836.19;6034435;29;20652;-71
2021/01/30 12:09:46;;;;;;;2.87;2.77;;;;;;;-5.86;75.72;99830.94;6029712;29;20226;-73
2021/01/30 12:12:50;;;;;;;3.00;2.67;;;;;;;-6.04;76.68;99832.56;6034484;29;20616;-78
2021/01/30 12:15:53;;;;;;;4.37;3.13;;;;;;;-6.03;77.90;99834.22;6032087;29;20227;-74
2021/01/30 12:18:57;;;;;;;3.13;2.87;;;;;;;-5.85;77.56;99827.28;6028321;29;20644;-74
2021/01/30 12:22:01;;;;;;;3.40;3.20;;;;;;;-5.65;77.01;99818.34;6028794;29;20220;-73
2021/01/30 12:25:07;;;;;;;2.57;2.47;;;;;;;-5.70;77.02;99809.97;6023803;29;20210;-74
2021/01/30 12:28:15;;;;;;;2.80;2.67;;;;;;;-5.43;76.47;99823.38;6022107;29;20577;-74
2021/01/30 12:31:18;;;;;;;3.50;3.20;;;;;;;-5.31;75.83;99821.41;6033096;29;20228;-74
2021/01/30 12:34:21;;;;;;;2.70;2.40;;;;;;;-5.59;76.04;99811.63;6026947;29;20443;-75
2021/01/30 12:37:25;;;;;;;2.87;2.63;;;;;;;-5.55;76.81;99803.25;6031140;29;20238;-74
2021/01/30 12:40:31;;;;;;;2.50;2.30;;;;;;;-5.94;75.52;99812.19;6030176;29;20226;-73
2021/01/30 12:43:36;;;;;;;3.10;2.50;;;;;;;-5.83;76.67;99820.00;6030888;29;20229;-74
2021/01/30 12:46:44;;;;;;;3.40;2.37;;;;;;;-5.46;75.55;99818.34;6038078;29;20217;-74
2021/01/30 12:49:47;;;;;;;2.57;2.47;;;;;;;-5.68;75.08;99818.63;6029945;29;20335;-76
2021/01/30 12:52:51;;;;;;;6.60;2.60;;;;;;;-5.87;75.90;99819.47;6019673;29;20646;-74
2021/01/30 12:55:55;;;;;;;6.40;2.50;;;;;;;-6.28;76.04;99824.94;6032328;29;20375;-75
2021/01/30 12:58:58;;;;;;;6.23;2.47;;;;;;;-6.34;77.20;99819.34;6028070;29;20583;-73
2021/01/30 13:02:02;;;;;;;3.50;3.20;;;;;;;-6.22;76.68;99813.81;6033202;29;20257;-76
2021/01/30 13:05:10;;;;;;;2.30;2.20;;;;;;;-6.53;78.41;99826.28;6021554;29;20335;-77
2021/01/30 13:08:19;;;;;;;3.20;2.83;;;;;;;-6.46;78.19;99826.56;6041026;29;20225;-74
2021/01/30 13:11:23;;;;;;;2.60;2.40;;;;;;;-6.75;78.26;99820.31;6028480;29;20222;-76
2021/01/30 13:14:26;;;;;;;2.20;2.10;;;;;;;-6.43;78.46;99816.53;6029262;29;20646;-72
2021/01/30 13:17:30;;;;;;;2.70;2.60;;;;;;;-6.63;77.83;99820.09;6033663;29;20210;-73
2021/01/30 13:20:35;;;;;;;2.73;2.10;;;;;;;-6.97;78.70;99818.63;6027226;29;20218;-73
2021/01/30 13:23:39;;;;;;;2.47;2.20;;;;;;;-6.65;78.97;99816.69;6025456;29;20295;-75
2021/01/30 13:26:43;;;;;;;2.70;2.50;;;;;;;-6.40;78.16;99821.56;6034151;29;20755;-73
2021/01/30 13:29:47;;;;;;;4.17;2.10;;;;;;;-6.78;78.00;99829.38;6029299;29;20719;-77
2021/01/30 13:32:51;;;;;;;2.57;2.47;;;;;;;-6.77;78.32;99823.06;6033885;29;20206;-76
2021/01/30 13:35:55;;;;;;;4.27;3.83;;;;;;;-6.86;78.80;99813.28;6028635;29;20626;-76
2021/01/30 13:39:00;;;;;;;2.53;2.43;;;;;;;-6.75;78.40;99826.41;6025594;29;20213;-75
2021/01/30 13:42:05;;;;;;;2.40;2.30;;;;;;;-6.77;78.24;99823.06;6021953;29;20219;-76
2021/01/30 13:45:10;;;;;;;3.80;2.87;;;;;;;-6.80;78.97;99810.06;6035803;29;20233;-75
2021/01/30 13:48:14;;;;;;;2.40;2.30;;;;;;;-6.73;78.48;99819.19;6025189;29;20697;-75
2021/01/30 13:51:17;;;;;;;2.03;2.03;;;;;;;-6.76;78.49;99814.16;6023333;29;20435;-74
2021/01/30 13:54:21;;;;;;;2.47;2.27;;;;;;;-6.90;77.90;99813.63;6022970;29;20297;-75
2021/01/30 13:57:24;;;;;;;2.97;2.40;;;;;;;-6.74;78.34;99812.19;6027759;29;20205;-74
2021/01/30 14:00:28;;;;;;;2.77;2.63;;;;;;;-6.74;78.08;99811.34;6026811;29;20204;-75
2021/01/30 14:03:33;;;;;;;3.23;2.30;;;;;;;-7.06;78.65;99816.78;6016128;29;20206;-75
2021/01/30 14:06:36;;;;;;;2.90;2.70;;;;;;;-7.29;80.23;99809.94;6021333;29;20213;-74
2021/01/30 14:09:40;;;;;;;2.90;2.70;;;;;;;-7.01;79.50;99801.31;6025983;29;20231;-74
2021/01/30 14:12:44;;;;;;;7.00;3.93;;;;;;;-6.99;79.98;99802.03;6027583;29;20213;-74
2021/01/30 14:15:48;;;;;;;5.03;2.73;;;;;;;-7.13;79.91;99799.69;6026725;29;20237;-77
2021/01/30 14:18:51;;;;;;;2.37;2.27;;;;;;;-7.11;80.66;99803.06;6027976;29;20221;-73
2021/01/30 14:21:55;;;;;;;2.43;2.33;;;;;;;-7.16;80.15;99799.94;6028564;29;20257;-73
2021/01/30 14:24:59;;;;;;;3.00;2.60;;;;;;;-7.32;80.61;99804.88;6027564;29;20227;-75
2021/01/30 14:28:03;;;;;;;2.67;2.47;;;;;;;-7.10;80.75;99796.78;6029274;29;20284;-73
2021/01/30 14:31:11;;;;;;;2.53;2.33;;;;;;;-7.19;79.72;99810.84;6029935;29;20225;-74
2021/01/30 14:34:16;;;;;;;2.63;2.53;;;;;;;-7.26;80.07;99793.75;6042538;29;20323;-74
2021/01/30 14:37:19;;;;;;;2.50;2.30;;;;;;;-7.18;80.56;99801.91;6018783;29;20750;-75
2021/01/30 14:40:26;;;;;;;4.13;2.40;;;;;;;-7.16;79.28;99808.75;6020862;29;20307;-74
2021/01/30 14:43:29;;;;;;;2.93;2.10;;;;;;;-7.52;79.97;99800.41;6023357;29;20204;-77
2021/01/30 14:46:36;;;;;;;3.63;2.40;;;;;;;-7.38;79.80;99800.09;6020140;29;20216;-73